createdAt,value
2019-01-26T09:44:20.262Z,0.41
2019-01-26T09:49:29.435Z,0.27
2019-01-26T09:54:38.752Z,0.38
2019-01-26T09:59:48.000Z,0.30
2019-01-26T10:04:57.226Z,0.24
2019-01-26T10:10:06.523Z,0.25
2019-01-26T10:15:15.803Z,0.32
2019-01-26T10:20:25.247Z,0.21
2019-01-26T10:25:34.724Z,0.26
2019-01-26T10:30:43.968Z,0.33
2019-01-26T10:35:53.398Z,0.22
2019-01-26T10:41:02.653Z,0.30
2019-01-26T10:46:12.051Z,0.18
2019-01-26T10:51:21.363Z,0.20
2019-01-26T10:56:30.698Z,0.22
2019-01-26T11:01:40.173Z,0.30
2019-01-26T11:06:49.980Z,0.64
2019-01-26T11:11:59.238Z,0.57
2019-01-26T11:17:08.567Z,0.33
2019-01-26T11:22:17.809Z,0.41
2019-01-26T11:27:27.174Z,0.46
2019-01-26T11:32:36.434Z,0.20
2019-01-26T11:37:45.695Z,0.33
2019-01-26T11:42:55.244Z,0.51
2019-01-26T11:48:04.612Z,0.39
2019-01-26T11:53:14.045Z,0.34
2019-01-26T11:58:23.375Z,0.40
2019-01-26T12:03:32.774Z,0.27
2019-01-26T12:08:41.949Z,0.28
2019-01-26T12:13:51.426Z,0.25
2019-01-26T12:19:00.945Z,0.32
2019-01-26T12:24:11.892Z,0.19
2019-01-26T12:29:19.137Z,0.14
2019-01-26T12:34:28.658Z,0.21
2019-01-26T12:39:37.910Z,0.12
2019-01-26T12:44:47.242Z,0.11
2019-01-26T12:49:56.623Z,0.19
2019-01-26T12:55:06.103Z,0.16
2019-01-26T13:00:15.411Z,0.16
2019-01-26T13:05:24.844Z,0.22
2019-01-26T13:10:34.107Z,0.20
2019-01-26T13:15:55.518Z,0.12
2019-01-26T13:20:44.940Z,0.15
2019-01-26T13:25:57.165Z,0.23
2019-01-26T13:30:56.506Z,0.15
2019-01-26T13:36:06.045Z,0.13
2019-01-26T13:41:15.333Z,0.12
2019-01-26T13:46:24.709Z,0.17
2019-01-26T13:51:34.109Z,0.15
2019-01-26T13:56:43.299Z,0.13
2019-01-26T14:01:52.579Z,0.11
2019-01-26T14:07:02.196Z,0.16
2019-01-26T14:12:11.555Z,0.10
2019-01-26T14:17:20.919Z,0.25
2019-01-26T14:22:30.177Z,0.11
2019-01-26T14:27:39.598Z,0.27
2019-01-26T14:32:52.694Z,0.10
2019-01-26T14:37:57.895Z,0.13
2019-01-26T14:43:07.520Z,0.10
2019-01-26T14:48:16.921Z,0.15
2019-01-26T14:53:26.365Z,0.19
2019-01-26T14:58:35.666Z,0.11
2019-01-26T15:03:44.906Z,0.18
2019-01-26T15:08:54.222Z,0.20
2019-01-26T15:14:03.602Z,0.16
2019-01-26T15:19:13.849Z,0.17
2019-01-26T15:24:13.318Z,0.20
2019-01-26T15:29:22.789Z,0.20
2019-01-26T15:34:32.532Z,0.18
2019-01-26T15:39:42.018Z,0.25
2019-01-26T15:44:51.706Z,0.19
2019-01-26T15:50:01.217Z,0.16
2019-01-26T15:55:10.822Z,0.16
2019-01-26T16:00:20.432Z,0.17
2019-01-26T16:05:29.925Z,0.17
2019-01-26T16:10:39.553Z,0.11
2019-01-26T16:15:49.256Z,0.27
2019-01-26T16:20:58.857Z,0.20
2019-01-26T16:26:08.533Z,0.19
2019-01-26T16:31:17.976Z,0.24
2019-01-26T16:36:27.405Z,0.26
2019-01-26T16:41:37.080Z,0.18
2019-01-26T16:46:46.715Z,0.18
2019-01-26T16:51:56.162Z,0.50
2019-01-26T16:57:05.699Z,0.19
2019-01-26T17:02:15.084Z,0.23
2019-01-26T17:07:24.681Z,0.14
2019-01-26T17:12:34.112Z,0.29
2019-01-26T17:17:43.871Z,0.23
2019-01-26T17:22:53.221Z,0.17
2019-01-26T17:28:02.694Z,0.29
2019-01-26T17:33:12.014Z,0.22
2019-01-26T17:38:21.928Z,0.17
2019-01-26T17:43:31.293Z,0.27
2019-01-26T17:48:40.571Z,0.43
2019-01-26T17:53:49.775Z,0.21
2019-01-26T17:58:59.041Z,0.40
2019-01-26T18:04:08.337Z,0.56
2019-01-26T18:09:17.792Z,0.53
2019-01-26T18:14:27.047Z,0.60
2019-01-26T18:19:36.424Z,0.42
2019-01-26T18:24:45.734Z,0.50
2019-01-26T18:29:55.052Z,0.50
2019-01-26T18:35:04.368Z,0.52
2019-01-26T18:40:13.928Z,0.23
2019-01-26T18:45:23.282Z,0.65
2019-01-26T18:50:32.761Z,0.29
2019-01-26T18:55:41.952Z,0.44
2019-01-26T19:00:51.264Z,0.35
2019-01-26T19:06:00.696Z,0.44
2019-01-26T19:11:10.062Z,0.53
2019-01-26T19:16:19.334Z,0.66
2019-01-26T19:21:28.676Z,0.69
2019-01-26T19:26:37.866Z,0.40
2019-01-26T19:31:47.303Z,0.55
2019-01-26T19:36:56.605Z,0.36
2019-01-26T19:42:06.192Z,0.62
2019-01-26T19:47:15.438Z,0.38
2019-01-26T19:52:24.683Z,0.59
2019-01-26T19:57:34.062Z,0.41
2019-01-26T20:02:43.314Z,0.64
2019-01-26T20:07:52.656Z,0.50
2019-01-26T20:13:02.097Z,0.56
2019-01-26T20:18:11.346Z,0.76
2019-01-26T20:23:20.667Z,0.49
2019-01-26T20:28:30.787Z,0.60
2019-01-26T20:33:30.111Z,0.54
2019-01-26T20:38:39.318Z,0.65
2019-01-26T20:43:48.732Z,0.58
2019-01-26T20:48:58.204Z,0.85
2019-01-26T20:54:07.475Z,0.64
2019-01-26T20:59:16.680Z,0.58
2019-01-26T21:04:25.998Z,0.77
2019-01-26T21:09:35.202Z,0.83
2019-01-26T21:14:44.613Z,0.71
2019-01-26T21:19:53.890Z,0.50
2019-01-26T21:25:03.127Z,0.71
2019-01-26T21:30:12.364Z,0.83
2019-01-26T21:35:21.846Z,0.59
2019-01-26T21:40:31.058Z,0.48
2019-01-26T21:45:40.342Z,0.42
2019-01-26T21:50:49.550Z,0.52
2019-01-26T21:56:06.386Z,0.37
2019-01-26T22:01:05.199Z,0.42
2019-01-26T22:06:14.409Z,0.44
2019-01-26T22:11:23.623Z,0.48
2019-01-26T22:16:32.964Z,0.43
2019-01-26T22:21:45.996Z,0.49
2019-01-26T22:26:50.973Z,0.52
2019-01-26T22:32:00.184Z,0.50
2019-01-26T22:37:09.442Z,0.57
2019-01-26T22:42:18.719Z,0.46
2019-01-26T22:47:27.977Z,0.44
2019-01-26T22:52:37.250Z,0.63
2019-01-26T22:57:46.530Z,0.37
2019-01-26T23:02:55.822Z,0.35
2019-01-26T23:08:05.134Z,0.31
2019-01-26T23:13:14.636Z,0.30
2019-01-26T23:18:23.986Z,0.61
2019-01-26T23:23:33.157Z,0.57
2019-01-26T23:28:42.541Z,0.36
2019-01-26T23:33:51.845Z,0.53
2019-01-26T23:39:02.427Z,0.51
2019-01-26T23:44:09.938Z,0.36
2019-01-26T23:49:19.923Z,0.39
2019-01-26T23:54:29.158Z,0.36
2019-01-26T23:59:38.508Z,0.59
